PWSweather.com
Personal Weather Stations
Station Observations
N7MNK
Silver Springs N. Of Katka Peak, Moyie Springs, ID 83845

Silver Springs N. Of Katka PeakMoyie Springs, ID 83845

Lat: 48.6942181533144, Lon: -116.11900806427

Elevation: 2280

Station Type: WH1080

Latest ConditionsUpdated 10:07:54 PM PDT Friday, Oct 31, 2014
Currently Today's Max Today's Min Today's Average
Temperature 45.9°F7.7°C 49.6°F9.8°C 45.7°F7.6°C 47.5°F8.6°C
Dew Point 42.2°F5.7°C 45.9°F7.7°C 42.0°F5.6°C 43.8°F6.6°C
Winds Calm Calm Calm Calm - Calm Calm
Wind Gusts -- 3.1 mph5.0 kmh - -
Humidity 87% 87% 87% 87%
Pressure 29.90 in1012.5 mb 29.90 in1012.5 mb 29.87 in1011.5 mb -
Precipitation - 0.01 in0.3 mm - -
Hour Temp Dew Point Humidity Winds Wind Gusts Pressure Precip Precip Rate Daily Precip Total
04:59 PM 49.8°F9.9°C 46.1°F7.8°C 87% Calm Calm 1.6 mph2.6 kmh 29.87 in1011.5 mb 0.00 in0.0 mm 0.00 in/hr0.0 mm/hr 0.01 in0.3 mm
04:48 PM 50.2°F10.1°C 46.5°F8.1°C 87% Calm Calm 2.2 mph3.5 kmh 29.87 in1011.5 mb 0.00 in0.0 mm 0.00 in/hr0.0 mm/hr 0.01 in0.3 mm
04:37 PM 50.4°F10.2°C 46.6°F8.1°C 87% Calm Calm 1.6 mph2.6 kmh 29.86 in1011.2 mb 0.00 in0.0 mm 0.00 in/hr0.0 mm/hr 0.01 in0.3 mm
04:26 PM 50.5°F10.3°C 46.8°F8.2°C 87% Calm Calm 1.6 mph2.6 kmh 29.86 in1011.2 mb 0.00 in0.0 mm 0.00 in/hr0.0 mm/hr 0.01 in0.3 mm
04:15 PM 50.9°F10.5°C 47.2°F8.4°C 87% Calm Calm 2.2 mph3.5 kmh 29.87 in1011.5 mb 0.00 in0.0 mm 0.00 in/hr0.0 mm/hr 0.01 in0.3 mm
04:04 PM 51.1°F10.6°C 47.4°F8.6°C 87% Calm Calm 1.6 mph2.6 kmh 29.86 in1011.2 mb 0.00 in0.0 mm 0.00 in/hr0.0 mm/hr 0.01 in0.3 mm
03:53 PM 51.1°F10.6°C 47.4°F8.6°C 87% Calm Calm 2.2 mph3.5 kmh 29.86 in1011.2 mb 0.00 in0.0 mm 0.00 in/hr0.0 mm/hr 0.01 in0.3 mm
03:42 PM 51.1°F10.6°C 47.4°F8.6°C 87% 1.6 mph S2.6 kmh S 2.2 mph3.5 kmh 29.85 in1010.8 mb 0.00 in0.0 mm 0.00 in/hr0.0 mm/hr 0.01 in0.3 mm
03:31 PM 51.1°F10.6°C 47.4°F8.6°C 87% Calm Calm 2.2 mph3.5 kmh 29.85 in1010.8 mb 0.00 in0.0 mm 0.00 in/hr0.0 mm/hr 0.01 in0.3 mm
03:20 PM 51.3°F10.7°C 47.5°F8.6°C 87% Calm Calm 2.2 mph3.5 kmh 29.85 in1010.8 mb 0.00 in0.0 mm 0.00 in/hr0.0 mm/hr 0.01 in0.3 mm
03:09 PM 51.3°F10.7°C 47.5°F8.6°C 87% Calm Calm 1.6 mph2.6 kmh 29.86 in1011.2 mb 0.00 in0.0 mm 0.00 in/hr0.0 mm/hr 0.01 in0.3 mm
02:58 PM 51.1°F10.6°C 47.4°F8.6°C 87% 0.7 mph SE1.1 kmh SE 1.6 mph2.6 kmh 29.85 in1010.8 mb 0.00 in0.0 mm 0.00 in/hr0.0 mm/hr 0.01 in0.3 mm
02:47 PM 51.1°F10.6°C 47.4°F8.6°C 87% Calm Calm -- 29.86 in1011.2 mb 0.00 in0.0 mm 0.00 in/hr0.0 mm/hr 0.01 in0.3 mm
02:36 PM 51.3°F10.7°C 47.5°F8.6°C 87% Calm Calm -- 29.86 in1011.2 mb 0.00 in0.0 mm 0.00 in/hr0.0 mm/hr 0.01 in0.3 mm
02:25 PM 51.6°F10.9°C 47.9°F8.8°C 87% Calm Calm -- 29.86 in1011.2 mb 0.00 in0.0 mm 0.00 in/hr0.0 mm/hr 0.01 in0.3 mm
02:14 PM 51.8°F11.0°C 48.1°F8.9°C 87% Calm Calm 2.2 mph3.5 kmh 29.84 in1010.5 mb 0.00 in0.0 mm 0.00 in/hr0.0 mm/hr 0.01 in0.3 mm
02:03 PM 52.2°F11.2°C 48.4°F9.1°C 87% 1.6 mph SSE2.6 kmh SSE 4.5 mph7.2 kmh 29.84 in1010.5 mb 0.00 in0.0 mm 0.00 in/hr0.0 mm/hr 0.01 in0.3 mm
01:52 PM 52.7°F11.5°C 48.9°F9.4°C 87% Calm Calm 2.2 mph3.5 kmh 29.84 in1010.5 mb 0.00 in0.0 mm 0.00 in/hr0.0 mm/hr 0.01 in0.3 mm
01:41 PM 48.9°F9.4°C 45.2°F7.3°C 87% 2.2 mph W3.5 kmh W 3.8 mph6.1 kmh 29.83 in1010.2 mb 0.00 in0.0 mm 0.00 in/hr0.0 mm/hr 0.01 in0.3 mm
01:30 PM 52.7°F11.5°C 48.9°F9.4°C 87% 0.7 mph SW1.1 kmh SW 3.8 mph6.1 kmh 29.83 in1010.2 mb 0.00 in0.0 mm 0.00 in/hr0.0 mm/hr 0.01 in0.3 mm
01:19 PM 52.3°F11.3°C 48.6°F9.2°C 87% 0.7 mph SE1.1 kmh SE 3.1 mph5.0 kmh 29.84 in1010.5 mb 0.00 in0.0 mm 0.00 in/hr0.0 mm/hr 0.01 in0.3 mm
01:08 PM 51.8°F11.0°C 48.1°F8.9°C 87% Calm Calm 2.2 mph3.5 kmh 29.84 in1010.5 mb 0.00 in0.0 mm 0.00 in/hr0.0 mm/hr 0.01 in0.3 mm
12:57 PM 51.8°F11.0°C 48.1°F8.9°C 87% Calm Calm 3.8 mph6.1 kmh 29.85 in1010.8 mb 0.00 in0.0 mm 0.00 in/hr0.0 mm/hr 0.01 in0.3 mm
12:46 PM 51.8°F11.0°C 48.1°F8.9°C 87% 0.7 mph ESE1.1 kmh ESE 3.8 mph6.1 kmh 29.85 in1010.8 mb 0.00 in0.0 mm 0.00 in/hr0.0 mm/hr 0.01 in0.3 mm
12:35 PM 50.9°F10.5°C 47.2°F8.4°C 87% 1.6 mph SE2.6 kmh SE 3.1 mph5.0 kmh 29.85 in1010.8 mb 0.00 in0.0 mm 0.00 in/hr0.0 mm/hr 0.01 in0.3 mm
12:24 PM 50.4°F10.2°C 46.6°F8.1°C 87% 2.2 mph SW3.5 kmh SW 5.4 mph8.7 kmh 29.86 in1011.2 mb 0.00 in0.0 mm 0.00 in/hr0.0 mm/hr 0.01 in0.3 mm
12:13 PM 50.2°F10.1°C 46.5°F8.1°C 87% 0.7 mph SE1.1 kmh SE 3.1 mph5.0 kmh 29.85 in1010.8 mb 0.00 in0.0 mm 0.00 in/hr0.0 mm/hr 0.01 in0.3 mm
12:02 PM 50.5°F10.3°C 46.8°F8.2°C 87% 0.7 mph SSW1.1 kmh SSW 3.8 mph6.1 kmh 29.85 in1010.8 mb 0.00 in0.0 mm 0.00 in/hr0.0 mm/hr 0.01 in0.3 mm
11:51 AM 50.9°F10.5°C 47.2°F8.4°C 87% 0.7 mph S1.1 kmh S 3.1 mph5.0 kmh 29.87 in1011.5 mb 0.00 in0.0 mm 0.00 in/hr0.0 mm/hr 0.01 in0.3 mm
11:40 AM 50.7°F10.4°C 47.0°F8.3°C 87% 0.7 mph SE1.1 kmh SE 3.1 mph5.0 kmh 29.87 in1011.5 mb 0.00 in0.0 mm 0.00 in/hr0.0 mm/hr 0.01 in0.3 mm
11:29 AM 50.4°F10.2°C 46.6°F8.1°C 87% Calm Calm 3.1 mph5.0 kmh 29.89 in1012.2 mb 0.00 in0.0 mm 0.00 in/hr0.0 mm/hr 0.01 in0.3 mm
11:18 AM 49.3°F9.6°C 45.6°F7.6°C 87% Calm Calm 2.2 mph3.5 kmh 29.89 in1012.2 mb 0.00 in0.0 mm 0.00 in/hr0.0 mm/hr 0.01 in0.3 mm
11:07 AM 48.9°F9.4°C 45.2°F7.3°C 87% Calm Calm 3.1 mph5.0 kmh 29.88 in1011.9 mb 0.00 in0.0 mm 0.00 in/hr0.0 mm/hr 0.01 in0.3 mm
10:56 AM 48.2°F9.0°C 44.5°F6.9°C 87% Calm Calm 3.8 mph6.1 kmh 29.89 in1012.2 mb 0.00 in0.0 mm 0.00 in/hr0.0 mm/hr 0.01 in0.3 mm
10:45 AM 47.7°F8.7°C 44.0°F6.7°C 87% 1.6 mph SE2.6 kmh SE 3.8 mph6.1 kmh 29.89 in1012.2 mb 0.00 in0.0 mm 0.00 in/hr0.0 mm/hr 0.01 in0.3 mm
10:34 AM 47.7°F8.7°C 44.0°F6.7°C 87% Calm Calm -- 29.88 in1011.9 mb 0.00 in0.0 mm 0.00 in/hr0.0 mm/hr 0.01 in0.3 mm
10:23 AM 47.3°F8.5°C 43.6°F6.4°C 87% Calm Calm -- 29.89 in1012.2 mb 0.00 in0.0 mm 0.00 in/hr0.0 mm/hr 0.01 in0.3 mm
10:12 AM 46.4°F8.0°C 42.7°F5.9°C 87% Calm Calm 2.2 mph3.5 kmh 29.88 in1011.9 mb 0.00 in0.0 mm 0.00 in/hr0.0 mm/hr 0.01 in0.3 mm
10:01 AM 45.5°F7.5°C 41.9°F5.5°C 87% Calm Calm 1.6 mph2.6 kmh 29.89 in1012.2 mb 0.00 in0.0 mm 0.00 in/hr0.0 mm/hr 0.01 in0.3 mm
09:50 AM 45.3°F7.4°C 41.7°F5.4°C 87% Calm Calm 0.7 mph1.1 kmh 29.88 in1011.9 mb 0.00 in0.0 mm 0.00 in/hr0.0 mm/hr 0.01 in0.3 mm
09:39 AM 45.1°F7.3°C 41.5°F5.3°C 87% Calm Calm 3.1 mph5.0 kmh 29.89 in1012.2 mb 0.00 in0.0 mm 0.00 in/hr0.0 mm/hr 0.01 in0.3 mm
09:28 AM 44.8°F7.1°C 41.2°F5.1°C 87% Calm Calm 1.6 mph2.6 kmh 29.89 in1012.2 mb 0.00 in0.0 mm 0.00 in/hr0.0 mm/hr 0.01 in0.3 mm
09:17 AM 44.6°F7.0°C 41.0°F5.0°C 87% Calm Calm 2.2 mph3.5 kmh 29.89 in1012.2 mb 0.00 in0.0 mm 0.00 in/hr0.0 mm/hr 0.01 in0.3 mm
09:06 AM 44.4°F6.9°C 40.8°F4.9°C 87% Calm Calm -- 29.89 in1012.2 mb 0.00 in0.0 mm 0.00 in/hr0.0 mm/hr 0.01 in0.3 mm
08:55 AM 44.1°F6.7°C 40.4°F4.7°C 87% Calm Calm -- 29.89 in1012.2 mb 0.00 in0.0 mm 0.00 in/hr0.0 mm/hr 0.01 in0.3 mm
08:44 AM 43.7°F6.5°C 40.1°F4.5°C 87% Calm Calm 2.2 mph3.5 kmh 29.88 in1011.9 mb 0.00 in0.0 mm 0.00 in/hr0.0 mm/hr 0.01 in0.3 mm
08:33 AM 43.3°F6.3°C 39.7°F4.3°C 87% Calm Calm 3.1 mph5.0 kmh 29.88 in1011.9 mb 0.00 in0.0 mm 0.00 in/hr0.0 mm/hr 0.01 in0.3 mm
08:22 AM 43.2°F6.2°C 39.6°F4.2°C 87% Calm Calm 0.7 mph1.1 kmh 29.88 in1011.9 mb 0.00 in0.0 mm 0.00 in/hr0.0 mm/hr 0.01 in0.3 mm
08:11 AM 43.2°F6.2°C 39.6°F4.2°C 87% Calm Calm -- 29.88 in1011.9 mb 0.00 in0.0 mm 0.00 in/hr0.0 mm/hr 0.01 in0.3 mm
08:00 AM 42.8°F6.0°C 39.2°F4.0°C 87% Calm Calm 2.2 mph3.5 kmh 29.88 in1011.9 mb 0.00 in0.0 mm 0.00 in/hr0.0 mm/hr 0.01 in0.3 mm
07:49 AM 42.8°F6.0°C 39.2°F4.0°C 87% Calm Calm 2.2 mph3.5 kmh 29.88 in1011.9 mb 0.00 in0.0 mm 0.00 in/hr0.0 mm/hr 0.01 in0.3 mm
07:38 AM 42.8°F6.0°C 39.2°F4.0°C 87% Calm Calm -- 29.89 in1012.2 mb 0.00 in0.0 mm 0.00 in/hr0.0 mm/hr 0.01 in0.3 mm
07:27 AM 43.0°F6.1°C 39.4°F4.1°C 87% Calm Calm 1.6 mph2.6 kmh 29.89 in1012.2 mb 0.00 in0.0 mm 0.00 in/hr0.0 mm/hr 0.01 in0.3 mm
07:16 AM 42.8°F6.0°C 39.2°F4.0°C 87% Calm Calm 2.2 mph3.5 kmh 29.89 in1012.2 mb 0.00 in0.0 mm 0.00 in/hr0.0 mm/hr 0.01 in0.3 mm
07:05 AM 42.8°F6.0°C 39.2°F4.0°C 87% Calm Calm 2.2 mph3.5 kmh 29.89 in1012.2 mb 0.00 in0.0 mm 0.00 in/hr0.0 mm/hr 0.01 in0.3 mm
06:54 AM 42.8°F6.0°C 39.2°F4.0°C 87% Calm Calm 2.2 mph3.5 kmh 29.87 in1011.5 mb 0.00 in0.0 mm 0.00 in/hr0.0 mm/hr 0.01 in0.3 mm
06:43 AM 42.6°F5.9°C 39.0°F3.9°C 87% Calm Calm -- 29.89 in1012.2 mb 0.00 in0.0 mm 0.00 in/hr0.0 mm/hr 0.01 in0.3 mm
06:32 AM 42.6°F5.9°C 39.0°F3.9°C 87% Calm Calm -- 29.89 in1012.2 mb 0.00 in0.0 mm 0.00 in/hr0.0 mm/hr 0.01 in0.3 mm
06:21 AM 42.6°F5.9°C 39.0°F3.9°C 87% Calm Calm 0.7 mph1.1 kmh 29.90 in1012.5 mb 0.00 in0.0 mm 0.00 in/hr0.0 mm/hr 0.01 in0.3 mm
06:10 AM 42.4°F5.8°C 38.9°F3.8°C 87% Calm Calm 0.7 mph1.1 kmh 29.91 in1012.9 mb 0.00 in0.0 mm 0.00 in/hr0.0 mm/hr 0.01 in0.3 mm
05:59 AM 42.4°F5.8°C 38.9°F3.8°C 87% Calm Calm 2.2 mph3.5 kmh 29.91 in1012.9 mb 0.00 in0.0 mm 0.00 in/hr0.0 mm/hr 0.01 in0.3 mm
05:48 AM 42.3°F5.7°C 38.7°F3.7°C 87% Calm Calm 2.2 mph3.5 kmh 29.90 in1012.5 mb 0.00 in0.0 mm 0.00 in/hr0.0 mm/hr 0.01 in0.3 mm
05:37 AM 41.9°F5.5°C 38.3°F3.5°C 87% Calm Calm -- 29.90 in1012.5 mb 0.00 in0.0 mm 0.00 in/hr0.0 mm/hr 0.01 in0.3 mm
05:26 AM 41.9°F5.5°C 38.3°F3.5°C 87% Calm Calm -- 29.90 in1012.5 mb 0.00 in0.0 mm 0.00 in/hr0.0 mm/hr 0.01 in0.3 mm
05:15 AM 41.9°F5.5°C 38.3°F3.5°C 87% Calm Calm -- 29.91 in1012.9 mb 0.00 in0.0 mm 0.00 in/hr0.0 mm/hr 0.01 in0.3 mm
05:04 AM 41.7°F5.4°C 38.1°F3.4°C 87% Calm Calm -- 29.92 in1013.2 mb 0.00 in0.0 mm 0.00 in/hr0.0 mm/hr 0.01 in0.3 mm
04:53 AM 41.7°F5.4°C 38.1°F3.4°C 87% Calm Calm -- 29.92 in1013.2 mb 0.00 in0.0 mm 0.00 in/hr0.0 mm/hr 0.01 in0.3 mm
04:42 AM 41.9°F5.5°C 38.3°F3.5°C 87% Calm Calm -- 29.92 in1013.2 mb 0.00 in0.0 mm 0.00 in/hr0.0 mm/hr 0.01 in0.3 mm
04:31 AM 42.1°F5.6°C 38.5°F3.6°C 87% Calm Calm 1.6 mph2.6 kmh 29.92 in1013.2 mb 0.00 in0.0 mm 0.00 in/hr0.0 mm/hr 0.01 in0.3 mm
04:20 AM 41.9°F5.5°C 38.3°F3.5°C 87% Calm Calm -- 29.92 in1013.2 mb 0.00 in0.0 mm 0.00 in/hr0.0 mm/hr 0.01 in0.3 mm
04:09 AM 41.9°F5.5°C 38.3°F3.5°C 87% Calm Calm -- 29.92 in1013.2 mb 0.00 in0.0 mm 0.00 in/hr0.0 mm/hr 0.01 in0.3 mm
03:58 AM 41.9°F5.5°C 38.3°F3.5°C 87% Calm Calm -- 29.92 in1013.2 mb 0.00 in0.0 mm 0.00 in/hr0.0 mm/hr 0.01 in0.3 mm
03:47 AM 42.1°F5.6°C 38.5°F3.6°C 87% Calm Calm -- 29.93 in1013.5 mb 0.00 in0.0 mm 0.00 in/hr0.0 mm/hr 0.01 in0.3 mm
03:36 AM 42.1°F5.6°C 38.5°F3.6°C 87% Calm Calm -- 29.92 in1013.2 mb 0.00 in0.0 mm 0.00 in/hr0.0 mm/hr 0.01 in0.3 mm
03:25 AM 42.3°F5.7°C 38.7°F3.7°C 87% Calm Calm 1.6 mph2.6 kmh 29.93 in1013.5 mb 0.00 in0.0 mm 0.00 in/hr0.0 mm/hr 0.01 in0.3 mm
03:14 AM 42.4°F5.8°C 38.9°F3.8°C 87% Calm Calm 0.7 mph1.1 kmh 29.94 in1013.9 mb 0.00 in0.0 mm 0.00 in/hr0.0 mm/hr 0.01 in0.3 mm
03:03 AM 42.4°F5.8°C 38.9°F3.8°C 87% Calm Calm -- 29.94 in1013.9 mb 0.00 in0.0 mm 0.00 in/hr0.0 mm/hr 0.01 in0.3 mm
02:52 AM 42.4°F5.8°C 38.9°F3.8°C 87% Calm Calm 0.7 mph1.1 kmh 29.94 in1013.9 mb 0.00 in0.0 mm 0.00 in/hr0.0 mm/hr 0.01 in0.3 mm
02:41 AM 42.6°F5.9°C 39.0°F3.9°C 87% Calm Calm 0.7 mph1.1 kmh 29.95 in1014.2 mb 0.01 in0.3 mm 0.00 in/hr0.0 mm/hr 0.01 in0.3 mm
02:30 AM 42.4°F5.8°C 38.9°F3.8°C 87% Calm Calm 0.7 mph1.1 kmh 29.95 in1014.2 mb 0.01 in0.3 mm 0.00 in/hr0.0 mm/hr 0.01 in0.3 mm
02:19 AM 41.9°F5.5°C 38.3°F3.5°C 87% Calm Calm -- 29.95 in1014.2 mb 0.01 in0.3 mm 0.00 in/hr0.0 mm/hr 0.01 in0.3 mm
02:08 AM 41.4°F5.2°C 37.8°F3.2°C 87% Calm Calm -- 29.96 in1014.6 mb 0.01 in0.3 mm 0.00 in/hr0.0 mm/hr 0.01 in0.3 mm
01:57 AM 41.4°F5.2°C 37.8°F3.2°C 87% Calm Calm -- 29.96 in1014.6 mb 0.01 in0.3 mm 0.00 in/hr0.0 mm/hr 0.01 in0.3 mm
01:46 AM 41.2°F5.1°C 37.6°F3.1°C 87% Calm Calm -- 29.97 in1014.9 mb 0.01 in0.3 mm 0.05 in/hr1.3 mm/hr 0.01 in0.3 mm
01:35 AM 41.2°F5.1°C 37.6°F3.1°C 87% Calm Calm -- 29.97 in1014.9 mb 0.00 in0.0 mm 0.00 in/hr0.0 mm/hr 0.00 in0.0 mm
01:24 AM 41.2°F5.1°C 37.6°F3.1°C 87% Calm Calm -- 29.97 in1014.9 mb 0.00 in0.0 mm 0.00 in/hr0.0 mm/hr 0.00 in0.0 mm
01:13 AM 41.4°F5.2°C 37.8°F3.2°C 87% Calm Calm -- 29.97 in1014.9 mb 0.00 in0.0 mm 0.00 in/hr0.0 mm/hr 0.00 in0.0 mm
01:02 AM 41.5°F5.3°C 38.0°F3.3°C 87% Calm Calm -- 29.98 in1015.2 mb 0.00 in0.0 mm 0.00 in/hr0.0 mm/hr 0.00 in0.0 mm
12:51 AM 41.7°F5.4°C 38.1°F3.4°C 87% Calm Calm -- 29.98 in1015.2 mb 0.00 in0.0 mm 0.00 in/hr0.0 mm/hr 0.00 in0.0 mm
12:40 AM 42.1°F5.6°C 38.5°F3.6°C 87% Calm Calm -- 29.98 in1015.2 mb 0.00 in0.0 mm 0.00 in/hr0.0 mm/hr 0.00 in0.0 mm
12:29 AM 42.3°F5.7°C 38.7°F3.7°C 87% Calm Calm -- 29.98 in1015.2 mb 0.00 in0.0 mm 0.00 in/hr0.0 mm/hr 0.00 in0.0 mm
12:18 AM 42.8°F6.0°C 39.2°F4.0°C 87% Calm Calm -- 29.98 in1015.2 mb 0.00 in0.0 mm 0.00 in/hr0.0 mm/hr 0.00 in0.0 mm
12:07 AM 43.2°F6.2°C 39.6°F4.2°C 87% Calm Calm -- 30.00 in1015.9 mb 0.00 in0.0 mm 0.00 in/hr0.0 mm/hr 0.00 in0.0 mm